Time;durP1;ratioP1;P1;durP2;ratioP2;P2;SDS_P1;SDS_P2;PMS_P1;PMS_P2;Temp;Humidity;BMP_temperature;BMP_pressure;BME280_temperature;BME280_humidity;BME280_pressure;Samples;Min_cycle;Max_cycle;Signal;HPM_P1;HPM_P2
2024/04/03 00:02:18;;;;;;;;;;;10.60;78.60;;;;;;5098404;28;20468;-58
2024/04/03 00:04:50;;;;;;;;;;;10.60;79.10;;;;;;5100410;28;20011;-76
2024/04/03 00:07:24;;;;;;;;;;;10.60;79.60;;;;;;5100570;28;19931;-76
2024/04/03 00:09:57;;;;;;;;;;;10.60;80.00;;;;;;5096994;28;19993;-75
2024/04/03 00:12:30;;;;;;;;;;;10.60;80.70;;;;;;5098877;28;19935;-75
2024/04/03 00:15:02;;;;;;;;;;;10.60;81.00;;;;;;5098778;28;20015;-74
2024/04/03 00:17:35;;;;;;;;;;;10.60;81.60;;;;;;5097292;28;20015;-75
2024/04/03 00:20:07;;;;;;;;;;;10.60;81.80;;;;;;5096737;28;19932;-78
2024/04/03 00:22:41;;;;;;;;;;;10.60;82.00;;;;;;5093213;28;19928;-76
2024/04/03 00:25:20;;;;;;;;;;;10.50;82.30;;;;;;5097885;28;19924;-76
2024/04/03 00:27:54;;;;;;;;;;;10.50;82.60;;;;;;5098462;28;21073;-75
2024/04/03 00:30:26;;;;;;;;;;;10.60;82.60;;;;;;5097650;28;20008;-76
2024/04/03 00:32:59;;;;;;;;;;;10.60;82.90;;;;;;5100050;28;20011;-77
2024/04/03 00:35:31;;;;;;;;;;;10.60;83.00;;;;;;5098777;28;19924;-73
2024/04/03 00:38:05;;;;;;;;;;;10.50;83.10;;;;;;5090023;28;19928;-76
2024/04/03 00:40:38;;;;;;;;;;;10.50;83.20;;;;;;5094420;28;19962;-75
2024/04/03 00:43:13;;;;;;;;;;;10.50;83.10;;;;;;5092375;28;19960;-76
2024/04/03 00:45:46;;;;;;;;;;;10.50;83.20;;;;;;5093659;28;19932;-75
2024/04/03 00:48:27;;;;;;;;;;;10.50;83.30;;;;;;5094081;28;20011;-74
2024/04/03 00:51:00;;;;;;;;;;;10.50;83.40;;;;;;5098936;28;19950;-74
2024/04/03 00:53:42;;;;;;;;;;;10.50;83.60;;;;;;5099658;28;20371;-73
2024/04/03 00:56:14;;;;;;;;;;;10.40;83.60;;;;;;5099170;28;19930;-76
2024/04/03 00:58:47;;;;;;;;;;;10.50;83.70;;;;;;5098506;28;19963;-74
2024/04/03 01:01:19;;;;;;;;;;;10.50;83.80;;;;;;5091006;28;19932;-75
2024/04/03 01:03:52;;;;;;;;;;;10.40;84.00;;;;;;5091504;28;19928;-75
2024/04/03 01:06:24;;;;;;;;;;;10.40;84.00;;;;;;5098247;28;20002;-74
2024/04/03 01:08:58;;;;;;;;;;;10.50;84.10;;;;;;5098791;28;19924;-75
2024/04/03 01:11:31;;;;;;;;;;;10.40;84.20;;;;;;5099387;28;19973;-75
2024/04/03 01:14:04;;;;;;;;;;;10.40;84.40;;;;;;5097940;28;19964;-61
2024/04/03 01:16:40;;;;;;;;;;;10.40;84.60;;;;;;5093002;28;19927;-61
2024/04/03 01:19:13;;;;;;;;;;;10.40;84.90;;;;;;5099734;28;19963;-61
2024/04/03 01:21:45;;;;;;;;;;;10.40;85.00;;;;;;5093638;28;19935;-61
2024/04/03 01:24:22;;;;;;;;;;;10.50;85.10;;;;;;5093491;28;20387;-61
2024/04/03 01:26:54;;;;;;;;;;;10.40;85.10;;;;;;5079237;28;20431;-61
2024/04/03 01:29:27;;;;;;;;;;;10.50;85.30;;;;;;5097936;28;19924;-60
2024/04/03 01:31:59;;;;;;;;;;;10.40;85.20;;;;;;5091679;28;19934;-61
2024/04/03 01:34:32;;;;;;;;;;;10.40;85.30;;;;;;5090771;28;19937;-62
2024/04/03 01:37:04;;;;;;;;;;;10.50;85.40;;;;;;5069493;28;20264;-62
2024/04/03 01:39:39;;;;;;;;;;;10.40;85.50;;;;;;5093764;28;19949;-61
2024/04/03 01:42:12;;;;;;;;;;;10.50;85.50;;;;;;5095640;28;20726;-62
2024/04/03 01:44:45;;;;;;;;;;;10.40;85.60;;;;;;5097530;28;19934;-60
2024/04/03 01:47:24;;;;;;;;;;;10.50;85.60;;;;;;5094949;28;19930;-63
2024/04/03 01:50:00;;;;;;;;;;;10.50;85.60;;;;;;5088736;28;20287;-63
2024/04/03 01:52:32;;;;;;;;;;;10.40;85.60;;;;;;5093683;28;19989;-60
2024/04/03 01:55:06;;;;;;;;;;;10.50;85.70;;;;;;5088372;28;20378;-60
2024/04/03 01:57:39;;;;;;;;;;;10.50;85.70;;;;;;5091058;28;19943;-62
2024/04/03 02:00:12;;;;;;;;;;;10.40;85.70;;;;;;5089439;28;19971;-61
2024/04/03 02:02:44;;;;;;;;;;;10.40;85.70;;;;;;5085672;28;20015;-61
2024/04/03 02:05:17;;;;;;;;;;;10.40;85.70;;;;;;5082560;28;20011;-63
2024/04/03 02:07:49;;;;;;;;;;;10.40;85.70;;;;;;5095130;28;19939;-60
2024/04/03 02:10:24;;;;;;;;;;;10.40;85.70;;;;;;5087232;28;19932;-61
2024/04/03 02:12:57;;;;;;;;;;;10.40;85.80;;;;;;5094822;28;19968;-62
2024/04/03 02:15:30;;;;;;;;;;;10.40;85.80;;;;;;5091411;28;20398;-61
2024/04/03 02:18:04;;;;;;;;;;;10.40;85.80;;;;;;5092775;28;19973;-60
2024/04/03 02:20:37;;;;;;;;;;;10.40;85.80;;;;;;5091839;28;19972;-62
2024/04/03 02:23:02;;;;;;;;;;;10.30;85.90;;;;;;5096326;28;20290;-59
2024/04/03 02:25:38;;;;;;;;;;;10.30;85.90;;;;;;5094969;28;20014;-61
2024/04/03 02:28:10;;;;;;;;;;;10.40;85.90;;;;;;5098642;28;19935;-61
2024/04/03 02:30:43;;;;;;;;;;;10.40;85.80;;;;;;5091046;28;19939;-60
2024/04/03 02:33:15;;;;;;;;;;;10.40;85.90;;;;;;5094841;28;20019;-61
2024/04/03 02:35:48;;;;;;;;;;;10.40;85.90;;;;;;5095787;28;20011;-59
2024/04/03 02:38:20;;;;;;;;;;;10.30;85.90;;;;;;5092303;28;19924;-62
2024/04/03 02:40:55;;;;;;;;;;;10.40;85.90;;;;;;5097239;28;20027;-62
2024/04/03 02:43:28;;;;;;;;;;;10.40;86.00;;;;;;5096932;28;19977;-59
2024/04/03 02:46:01;;;;;;;;;;;10.30;86.00;;;;;;5097346;28;19951;-61
2024/04/03 02:48:39;;;;;;;;;;;10.30;86.10;;;;;;5096684;28;19932;-60
2024/04/03 02:51:13;;;;;;;;;;;10.30;86.20;;;;;;5091138;28;19969;-60
2024/04/03 02:53:45;;;;;;;;;;;10.30;86.20;;;;;;5092506;28;19928;-61
2024/04/03 02:56:19;;;;;;;;;;;10.30;86.20;;;;;;5093782;28;20368;-61
2024/04/03 02:58:52;;;;;;;;;;;10.30;86.30;;;;;;5091217;28;19972;-59
2024/04/03 03:01:25;;;;;;;;;;;10.30;86.30;;;;;;5091027;28;19924;-60
2024/04/03 03:03:57;;;;;;;;;;;10.30;86.40;;;;;;5094760;28;19946;-60
2024/04/03 03:06:30;;;;;;;;;;;10.30;86.50;;;;;;5092048;28;19935;-62
2024/04/03 03:09:02;;;;;;;;;;;10.30;86.50;;;;;;5098653;28;20008;-61
2024/04/03 03:11:36;;;;;;;;;;;10.30;86.50;;;;;;5092591;28;19981;-61
2024/04/03 03:14:09;;;;;;;;;;;10.30;86.60;;;;;;5090025;28;19928;-60
2024/04/03 03:16:35;;;;;;;;;;;10.30;86.50;;;;;;5091107;28;19977;-60
2024/04/03 03:19:08;;;;;;;;;;;10.30;86.60;;;;;;5097707;28;19935;-61
2024/04/03 03:21:41;;;;;;;;;;;10.30;86.70;;;;;;5096416;28;20937;-61
2024/04/03 03:24:13;;;;;;;;;;;10.30;86.70;;;;;;5092916;28;20768;-60
2024/04/03 03:26:47;;;;;;;;;;;10.30;86.70;;;;;;5097453;28;20007;-60
2024/04/03 03:29:20;;;;;;;;;;;10.20;86.80;;;;;;5096160;28;20357;-59
2024/04/03 03:31:53;;;;;;;;;;;10.30;86.90;;;;;;5094790;28;19964;-60
2024/04/03 03:34:18;;;;;;;;;;;10.20;87.00;;;;;;5094288;28;19924;-61
2024/04/03 03:36:58;;;;;;;;;;;10.20;87.00;;;;;;5094569;28;20016;-59
2024/04/03 03:39:32;;;;;;;;;;;10.20;87.00;;;;;;5094922;28;19931;-60
2024/04/03 03:42:00;;;;;;;;;;;10.20;87.00;;;;;;5093105;28;19924;-60
2024/04/03 03:44:38;;;;;;;;;;;10.20;87.10;;;;;;5096116;28;20036;-60
2024/04/03 03:47:12;;;;;;;;;;;10.20;87.10;;;;;;5095151;28;19931;-61
2024/04/03 03:52:37;;;;;;;;;;;10.10;87.10;;;;;;5092114;28;19928;-61
2024/04/03 03:55:16;;;;;;;;;;;10.10;87.10;;;;;;5091713;28;19932;-60
2024/04/03 03:57:51;;;;;;;;;;;10.10;87.00;;;;;;5095185;28;20398;-60
2024/04/03 04:00:18;;;;;;;;;;;10.10;87.00;;;;;;5092235;28;19927;-61
2024/04/03 04:02:51;;;;;;;;;;;10.10;87.00;;;;;;5092960;28;20437;-61
2024/04/03 04:05:30;;;;;;;;;;;10.10;87.00;;;;;;5093634;28;20023;-61
2024/04/03 04:08:03;;;;;;;;;;;10.10;86.90;;;;;;5094355;28;19928;-59
2024/04/03 04:10:37;;;;;;;;;;;10.00;87.00;;;;;;5090314;28;19928;-61
2024/04/03 04:13:10;;;;;;;;;;;10.00;87.00;;;;;;5089165;28;20367;-60
2024/04/03 04:15:44;;;;;;;;;;;10.00;87.00;;;;;;5092762;28;19935;-60
2024/04/03 04:18:16;;;;;;;;;;;10.00;87.10;;;;;;5091368;28;20551;-60
2024/04/03 04:20:53;;;;;;;;;;;9.90;87.00;;;;;;5096991;28;19928;-61
2024/04/03 04:23:25;;;;;;;;;;;9.90;87.10;;;;;;5096283;28;19931;-61
2024/04/03 04:26:01;;;;;;;;;;;9.90;87.10;;;;;;5096427;28;19938;-59
2024/04/03 04:28:35;;;;;;;;;;;9.90;87.20;;;;;;5098567;28;19927;-61
2024/04/03 04:31:09;;;;;;;;;;;9.90;87.20;;;;;;5093546;28;19961;-61
2024/04/03 04:33:41;;;;;;;;;;;10.00;87.20;;;;;;5089045;28;19967;-60
2024/04/03 04:36:14;;;;;;;;;;;9.90;87.30;;;;;;5098473;28;19924;-61
2024/04/03 04:38:46;;;;;;;;;;;10.00;87.40;;;;;;5097041;28;19924;-60
2024/04/03 04:41:19;;;;;;;;;;;9.90;87.50;;;;;;5094687;28;19966;-61
2024/04/03 04:44:00;;;;;;;;;;;10.00;87.50;;;;;;5098326;28;19931;-61
2024/04/03 04:46:34;;;;;;;;;;;10.00;87.60;;;;;;5090367;28;19936;-61
2024/04/03 04:49:07;;;;;;;;;;;10.00;87.50;;;;;;5088842;28;20299;-60
2024/04/03 04:51:40;;;;;;;;;;;10.00;87.60;;;;;;5089298;28;19931;-60
2024/04/03 04:54:12;;;;;;;;;;;10.00;87.60;;;;;;5098125;28;19923;-60
2024/04/03 04:56:46;;;;;;;;;;;9.90;87.60;;;;;;5094807;28;19924;-61
2024/04/03 04:59:19;;;;;;;;;;;10.00;87.70;;;;;;5095582;28;20393;-61
2024/04/03 05:01:53;;;;;;;;;;;10.00;87.70;;;;;;5095422;28;19931;-61
2024/04/03 05:04:26;;;;;;;;;;;10.00;87.70;;;;;;5098365;28;19928;-61
2024/04/03 05:07:02;;;;;;;;;;;10.00;87.70;;;;;;5096233;28;20007;-60
2024/04/03 05:09:34;;;;;;;;;;;10.00;87.70;;;;;;5095169;28;19930;-61
2024/04/03 05:12:07;;;;;;;;;;;10.00;87.80;;;;;;5096102;28;20438;-60
2024/04/03 05:14:40;;;;;;;;;;;10.00;87.90;;;;;;5099189;28;20290;-60
2024/04/03 05:17:16;;;;;;;;;;;10.00;87.80;;;;;;5096506;28;20286;-60
2024/04/03 05:19:48;;;;;;;;;;;10.10;87.70;;;;;;5099914;28;19961;-61
2024/04/03 05:22:28;;;;;;;;;;;10.10;87.70;;;;;;5094361;28;20370;-61
2024/04/03 05:25:00;;;;;;;;;;;10.10;87.70;;;;;;5078783;28;19993;-59
2024/04/03 05:27:33;;;;;;;;;;;10.10;87.70;;;;;;5097835;28;19981;-59
2024/04/03 05:30:07;;;;;;;;;;;10.10;87.70;;;;;;5095437;28;19962;-59
2024/04/03 05:32:40;;;;;;;;;;;10.10;87.80;;;;;;5093262;28;20530;-60
2024/04/03 05:35:12;;;;;;;;;;;10.10;87.80;;;;;;5098201;28;20370;-60
2024/04/03 05:37:45;;;;;;;;;;;10.10;87.70;;;;;;5093126;28;19935;-61
2024/04/03 05:40:24;;;;;;;;;;;10.10;87.70;;;;;;5098061;28;19967;-59
2024/04/03 05:42:57;;;;;;;;;;;10.10;87.80;;;;;;5099145;28;19976;-61
2024/04/03 05:45:30;;;;;;;;;;;10.20;87.60;;;;;;5095519;28;19939;-60
2024/04/03 05:48:04;;;;;;;;;;;10.20;87.60;;;;;;5097290;28;19950;-60
2024/04/03 05:50:37;;;;;;;;;;;10.20;87.60;;;;;;5094492;28;19930;-61
2024/04/03 05:53:10;;;;;;;;;;;10.20;87.50;;;;;;5097985;28;19963;-61
2024/04/03 05:55:51;;;;;;;;;;;10.20;87.60;;;;;;5095512;28;19942;-61
2024/04/03 05:58:25;;;;;;;;;;;10.20;87.50;;;;;;5095898;28;20011;-62
2024/04/03 06:00:59;;;;;;;;;;;10.30;87.40;;;;;;5086131;28;19928;-62
2024/04/03 06:03:33;;;;;;;;;;;10.40;87.30;;;;;;5090974;28;20034;-60
2024/04/03 06:06:05;;;;;;;;;;;10.40;87.40;;;;;;5092897;28;19981;-60
2024/04/03 06:08:39;;;;;;;;;;;10.40;87.40;;;;;;5091059;28;19967;-62
2024/04/03 06:11:45;;;;;;;;;;;10.40;87.50;;;;;;5089982;28;19928;-61
2024/04/03 06:14:18;;;;;;;;;;;10.40;87.50;;;;;;5073963;28;19938;-62
2024/04/03 06:16:51;;;;;;;;;;;10.40;87.40;;;;;;5094159;28;20398;-61
2024/04/03 06:19:25;;;;;;;;;;;10.50;87.50;;;;;;5097255;28;19971;-61
2024/04/03 06:21:50;;;;;;;;;;;10.50;87.40;;;;;;5092518;28;19939;-61
2024/04/03 06:24:24;;;;;;;;;;;10.50;87.50;;;;;;5094106;28;19992;-61
2024/04/03 06:26:56;;;;;;;;;;;10.50;87.40;;;;;;5094905;28;19931;-60
2024/04/03 06:29:29;;;;;;;;;;;10.50;87.50;;;;;;5095935;28;20366;-60
2024/04/03 06:32:10;;;;;;;;;;;10.50;87.60;;;;;;5093978;28;20382;-60
2024/04/03 06:34:42;;;;;;;;;;;10.50;87.60;;;;;;5096410;28;19928;-62
2024/04/03 06:37:15;;;;;;;;;;;10.60;87.60;;;;;;5097323;28;19942;-61
2024/04/03 06:39:47;;;;;;;;;;;10.60;87.70;;;;;;5093747;28;19932;-61
2024/04/03 06:42:20;;;;;;;;;;;10.50;87.60;;;;;;5096433;28;19927;-60
2024/04/03 06:44:52;;;;;;;;;;;10.60;87.60;;;;;;5093298;28;19950;-62
2024/04/03 06:47:27;;;;;;;;;;;10.50;87.60;;;;;;5096803;28;19942;-60
2024/04/03 06:50:00;;;;;;;;;;;10.50;87.70;;;;;;5095461;28;19931;-60
2024/04/03 06:52:39;;;;;;;;;;;10.60;87.60;;;;;;5096405;28;19985;-60
2024/04/03 06:55:12;;;;;;;;;;;10.60;87.50;;;;;;5093784;28;19928;-60
2024/04/03 06:57:45;;;;;;;;;;;10.70;87.30;;;;;;5097130;28;19927;-60
2024/04/03 07:00:17;;;;;;;;;;;10.70;87.20;;;;;;5092204;28;19982;-62
2024/04/03 07:02:52;;;;;;;;;;;10.70;87.10;;;;;;5093452;28;20007;-60
2024/04/03 07:05:25;;;;;;;;;;;10.70;86.70;;;;;;5095722;28;20090;-61
2024/04/03 07:07:58;;;;;;;;;;;10.80;87.20;;;;;;5091823;28;20020;-61
2024/04/03 07:10:30;;;;;;;;;;;10.90;86.80;;;;;;5089735;28;19928;-60
2024/04/03 07:13:04;;;;;;;;;;;11.00;87.00;;;;;;5094589;28;20282;-59
2024/04/03 07:15:36;;;;;;;;;;;11.00;86.80;;;;;;5094466;28;19963;-60
2024/04/03 07:18:10;;;;;;;;;;;11.00;86.60;;;;;;5096112;28;19924;-60
2024/04/03 07:20:51;;;;;;;;;;;11.10;86.70;;;;;;5097507;28;19927;-60
2024/04/03 07:23:31;;;;;;;;;;;11.10;86.40;;;;;;5092572;28;19924;-60
2024/04/03 07:26:03;;;;;;;;;;;11.10;86.30;;;;;;5092334;28;20375;-60
2024/04/03 07:28:36;;;;;;;;;;;11.10;86.30;;;;;;5094927;28;19963;-59
2024/04/03 07:31:15;;;;;;;;;;;11.10;86.40;;;;;;5089620;28;19924;-59
2024/04/03 07:33:50;;;;;;;;;;;11.20;86.00;;;;;;5092480;28;19924;-59
2024/04/03 07:36:22;;;;;;;;;;;11.20;86.10;;;;;;5091665;28;20617;-60
2024/04/03 07:38:56;;;;;;;;;;;11.20;86.20;;;;;;5090775;28;20405;-60
2024/04/03 07:41:28;;;;;;;;;;;11.20;86.20;;;;;;5094531;28;19928;-60
2024/04/03 07:44:02;;;;;;;;;;;11.30;86.00;;;;;;5088704;28;19932;-61
2024/04/03 07:46:34;;;;;;;;;;;11.30;86.00;;;;;;5092728;28;19928;-60
2024/04/03 07:49:03;;;;;;;;;;;11.40;86.10;;;;;;5096415;28;19934;-61
2024/04/03 07:51:36;;;;;;;;;;;11.40;86.00;;;;;;5092654;28;19927;-60
2024/04/03 07:54:09;;;;;;;;;;;11.40;86.00;;;;;;5094057;28;19923;-59
2024/04/03 07:56:41;;;;;;;;;;;11.40;85.80;;;;;;5095806;28;19930;-62
2024/04/03 07:59:14;;;;;;;;;;;11.40;85.80;;;;;;5096058;28;19935;-61
2024/04/03 08:01:46;;;;;;;;;;;11.40;85.80;;;;;;5096009;28;19963;-61
2024/04/03 08:04:23;;;;;;;;;;;11.40;85.90;;;;;;5097792;28;20633;-61
2024/04/03 08:06:55;;;;;;;;;;;11.50;85.80;;;;;;5091371;28;19928;-61
2024/04/03 08:09:31;;;;;;;;;;;11.50;85.80;;;;;;5096956;28;19930;-61
2024/04/03 08:12:03;;;;;;;;;;;11.40;85.40;;;;;;5097293;28;20406;-61
2024/04/03 08:14:30;;;;;;;;;;;11.50;85.70;;;;;;5097939;28;19924;-57
2024/04/03 08:17:02;;;;;;;;;;;11.50;85.90;;;;;;5094912;28;20428;-58
2024/04/03 08:19:36;;;;;;;;;;;11.60;85.70;;;;;;5096287;28;19928;-58
2024/04/03 08:22:09;;;;;;;;;;;11.60;85.60;;;;;;5097657;28;20270;-59
2024/04/03 08:24:43;;;;;;;;;;;11.70;85.60;;;;;;5097022;28;20440;-57
2024/04/03 08:27:21;;;;;;;;;;;11.60;85.20;;;;;;5094060;28;19923;-60
2024/04/03 08:29:57;;;;;;;;;;;11.70;84.80;;;;;;5095189;28;20286;-59
2024/04/03 08:32:29;;;;;;;;;;;11.70;84.10;;;;;;5098090;28;19928;-58
2024/04/03 08:35:04;;;;;;;;;;;11.70;83.80;;;;;;5097494;28;19981;-58
2024/04/03 08:37:36;;;;;;;;;;;11.70;83.30;;;;;;5095302;28;19928;-57
2024/04/03 08:40:11;;;;;;;;;;;11.80;83.00;;;;;;5099308;28;19955;-58
2024/04/03 08:42:37;;;;;;;;;;;11.90;82.90;;;;;;5093554;28;19928;-58
2024/04/03 08:45:11;;;;;;;;;;;12.00;82.70;;;;;;5090704;28;19927;-58
2024/04/03 08:47:43;;;;;;;;;;;12.10;82.60;;;;;;5094687;28;19935;-57
2024/04/03 08:50:18;;;;;;;;;;;12.10;82.40;;;;;;5096483;28;20020;-60
2024/04/03 08:52:58;;;;;;;;;;;12.10;82.30;;;;;;5096870;28;20001;-58
2024/04/03 08:55:33;;;;;;;;;;;12.20;82.30;;;;;;5094659;28;20386;-58
2024/04/03 08:58:05;;;;;;;;;;;12.20;82.30;;;;;;5093882;28;20015;-58
2024/04/03 09:00:38;;;;;;;;;;;12.30;82.20;;;;;;5091143;28;20343;-58
2024/04/03 09:03:11;;;;;;;;;;;12.30;81.90;;;;;;5097446;28;20371;-58
2024/04/03 09:05:46;;;;;;;;;;;12.40;81.80;;;;;;5095982;28;20006;-58
2024/04/03 09:09:20;;;;;;;;;;;12.40;81.70;;;;;;5098797;28;19931;-57
2024/04/03 09:12:23;;;;;;;;;;;12.50;81.50;;;;;;5092263;28;19965;-57
2024/04/03 09:15:07;;;;;;;;;;;12.60;81.40;;;;;;5091926;28;19927;-58
2024/04/03 09:17:39;;;;;;;;;;;12.60;81.30;;;;;;5083388;28;19925;-58
2024/04/03 09:20:12;;;;;;;;;;;12.70;81.20;;;;;;5091757;28;19938;-59
2024/04/03 09:22:45;;;;;;;;;;;12.70;81.20;;;;;;5099472;28;19973;-58
2024/04/03 09:25:12;;;;;;;;;;;12.70;80.70;;;;;;5098196;28;19935;-63
2024/04/03 09:27:45;;;;;;;;;;;12.80;80.40;;;;;;5097158;28;19924;-65
2024/04/03 09:30:18;;;;;;;;;;;12.80;80.10;;;;;;5094847;28;19928;-63
2024/04/03 09:32:54;;;;;;;;;;;12.90;80.00;;;;;;5097071;28;20290;-64
2024/04/03 09:35:29;;;;;;;;;;;12.90;80.00;;;;;;5096339;28;20311;-64
2024/04/03 09:38:02;;;;;;;;;;;12.90;79.90;;;;;;5097900;28;19924;-63
2024/04/03 09:40:37;;;;;;;;;;;12.80;79.60;;;;;;5091671;28;19991;-63
2024/04/03 09:43:11;;;;;;;;;;;12.80;79.40;;;;;;5096355;28;19967;-63
2024/04/03 09:45:52;;;;;;;;;;;12.80;79.20;;;;;;5092645;28;20387;-63
2024/04/03 09:48:25;;;;;;;;;;;12.80;79.30;;;;;;5097013;28;20298;-63
2024/04/03 09:50:58;;;;;;;;;;;12.90;79.20;;;;;;5097918;28;20014;-62
2024/04/03 09:53:27;;;;;;;;;;;13.10;79.10;;;;;;5095041;28;19923;-64
2024/04/03 09:56:00;;;;;;;;;;;13.20;79.00;;;;;;5095400;28;20013;-63
2024/04/03 09:58:35;;;;;;;;;;;13.20;78.80;;;;;;5098403;28;19938;-65
2024/04/03 10:01:08;;;;;;;;;;;13.30;78.60;;;;;;5092079;28;20306;-64
2024/04/03 10:03:41;;;;;;;;;;;13.40;78.40;;;;;;5073063;28;20274;-64
2024/04/03 10:06:16;;;;;;;;;;;13.50;78.20;;;;;;5090230;28;19932;-64
2024/04/03 10:08:50;;;;;;;;;;;13.60;77.90;;;;;;5096678;28;19928;-64
2024/04/03 10:11:26;;;;;;;;;;;13.60;77.80;;;;;;5093843;28;19934;-65
2024/04/03 10:14:04;;;;;;;;;;;13.70;77.60;;;;;;5093364;28;19967;-64
2024/04/03 10:16:38;;;;;;;;;;;13.70;77.60;;;;;;5097698;28;19924;-65
2024/04/03 10:19:10;;;;;;;;;;;13.80;77.10;;;;;;5086211;28;19938;-63
2024/04/03 10:21:43;;;;;;;;;;;13.80;77.00;;;;;;5091059;28;19939;-63
2024/04/03 10:24:18;;;;;;;;;;;13.80;76.80;;;;;;5094941;28;19971;-63
2024/04/03 10:26:58;;;;;;;;;;;13.90;76.40;;;;;;5092776;28;20019;-65
2024/04/03 10:29:30;;;;;;;;;;;13.90;76.30;;;;;;5090698;28;20007;-63
2024/04/03 10:32:03;;;;;;;;;;;14.00;76.10;;;;;;5093295;28;19932;-64
2024/04/03 10:34:42;;;;;;;;;;;14.00;76.10;;;;;;5090889;28;19963;-61
2024/04/03 10:37:15;;;;;;;;;;;14.00;75.70;;;;;;5096298;28;19936;-63
2024/04/03 10:39:50;;;;;;;;;;;14.10;75.60;;;;;;5096790;28;19967;-61
2024/04/03 10:42:23;;;;;;;;;;;14.10;75.10;;;;;;5098838;28;20275;-62
2024/04/03 10:44:55;;;;;;;;;;;14.20;75.10;;;;;;5098846;28;20028;-62
2024/04/03 10:47:28;;;;;;;;;;;14.20;74.80;;;;;;5096351;28;19934;-61
2024/04/03 10:50:00;;;;;;;;;;;14.40;74.40;;;;;;5097623;28;19933;-62
2024/04/03 10:52:33;;;;;;;;;;;14.50;74.30;;;;;;5094572;28;20332;-62
2024/04/03 10:55:06;;;;;;;;;;;14.60;73.60;;;;;;5096496;28;19928;-62
2024/04/03 10:57:40;;;;;;;;;;;14.60;73.20;;;;;;5097938;28;20341;-62
2024/04/03 11:00:12;;;;;;;;;;;14.60;73.10;;;;;;5097128;28;19927;-62
2024/04/03 11:02:46;;;;;;;;;;;14.70;72.90;;;;;;5096658;28;19935;-62
2024/04/03 11:05:14;;;;;;;;;;;14.80;72.60;;;;;;5096498;28;20385;-62
2024/04/03 11:07:47;;;;;;;;;;;14.80;72.80;;;;;;5098140;28;19924;-61
2024/04/03 11:10:21;;;;;;;;;;;14.80;72.20;;;;;;5096707;28;19930;-61
2024/04/03 11:13:02;;;;;;;;;;;14.70;72.00;;;;;;5097084;28;19939;-62
2024/04/03 11:15:35;;;;;;;;;;;14.60;72.10;;;;;;5090826;28;20005;-62
2024/04/03 11:18:08;;;;;;;;;;;14.50;72.20;;;;;;5095784;28;19931;-62
2024/04/03 11:20:40;;;;;;;;;;;14.50;71.80;;;;;;5096907;28;19923;-62
2024/04/03 11:23:14;;;;;;;;;;;14.30;71.60;;;;;;5095872;28;19935;-64
2024/04/03 11:25:56;;;;;;;;;;;14.30;71.80;;;;;;5096487;28;19932;-61
2024/04/03 11:28:29;;;;;;;;;;;14.10;71.90;;;;;;5095400;28;20458;-61
2024/04/03 11:31:07;;;;;;;;;;;14.10;71.80;;;;;;5098188;28;19924;-61
2024/04/03 11:33:42;;;;;;;;;;;14.10;72.40;;;;;;5099452;28;20310;-61
2024/04/03 11:36:17;;;;;;;;;;;14.10;72.40;;;;;;5100973;28;19935;-63
2024/04/03 11:38:50;;;;;;;;;;;14.00;72.30;;;;;;5100114;28;19924;-61
2024/04/03 11:41:23;;;;;;;;;;;13.90;72.40;;;;;;5097041;28;19939;-61
2024/04/03 11:43:57;;;;;;;;;;;13.90;72.20;;;;;;5099408;28;20378;-61
2024/04/03 11:46:29;;;;;;;;;;;13.90;72.20;;;;;;5097187;28;20015;-62
2024/04/03 11:49:04;;;;;;;;;;;13.80;72.50;;;;;;5098491;28;19977;-61
2024/04/03 11:51:36;;;;;;;;;;;13.80;72.80;;;;;;5081240;28;19927;-61
2024/04/03 11:54:09;;;;;;;;;;;13.80;72.60;;;;;;5100551;28;20365;-60
2024/04/03 11:56:43;;;;;;;;;;;13.70;72.50;;;;;;5098301;28;19931;-61
2024/04/03 11:59:16;;;;;;;;;;;13.70;72.30;;;;;;5098446;28;19963;-61
2024/04/03 12:01:48;;;;;;;;;;;13.70;70.90;;;;;;5098503;28;19932;-61
2024/04/03 12:04:21;;;;;;;;;;;13.70;70.70;;;;;;5098775;28;19924;-61
2024/04/03 12:07:00;;;;;;;;;;;13.70;71.10;;;;;;5098613;28;19924;-62
2024/04/03 12:09:33;;;;;;;;;;;13.70;71.50;;;;;;5098454;28;20345;-62
2024/04/03 12:12:07;;;;;;;;;;;13.70;71.30;;;;;;5100800;28;20310;-61
2024/04/03 12:14:40;;;;;;;;;;;13.70;71.10;;;;;;5098104;28;20379;-61
2024/04/03 12:17:24;;;;;;;;;;;13.70;71.20;;;;;;5099183;28;20374;-62
2024/04/03 12:20:06;;;;;;;;;;;13.70;71.30;;;;;;5099880;28;19932;-62
2024/04/03 12:22:38;;;;;;;;;;;13.60;71.90;;;;;;5097467;28;20302;-62
2024/04/03 12:25:12;;;;;;;;;;;13.70;71.70;;;;;;5098419;28;19924;-62
2024/04/03 12:27:52;;;;;;;;;;;13.60;71.90;;;;;;5081383;28;19924;-61
2024/04/03 12:30:25;;;;;;;;;;;13.60;72.00;;;;;;5098441;28;19927;-61
2024/04/03 12:33:00;;;;;;;;;;;13.60;71.70;;;;;;5098863;28;20001;-62
2024/04/03 12:35:33;;;;;;;;;;;13.60;72.20;;;;;;5099015;28;19931;-62
2024/04/03 12:38:05;;;;;;;;;;;13.60;72.60;;;;;;5100208;28;19930;-61
2024/04/03 12:40:38;;;;;;;;;;;13.60;72.40;;;;;;5097019;28;19935;-62
2024/04/03 12:43:12;;;;;;;;;;;13.70;72.40;;;;;;5100151;28;20418;-62
2024/04/03 12:45:50;;;;;;;;;;;13.70;72.20;;;;;;5097763;28;19924;-62
2024/04/03 12:48:22;;;;;;;;;;;13.80;72.10;;;;;;5097025;28;20391;-60
2024/04/03 12:51:05;;;;;;;;;;;13.70;72.20;;;;;;5098164;28;21320;-61
2024/04/03 12:53:44;;;;;;;;;;;13.70;72.30;;;;;;5097344;28;19928;-61
2024/04/03 12:56:17;;;;;;;;;;;13.70;72.30;;;;;;5096418;28;19932;-73
2024/04/03 12:58:51;;;;;;;;;;;13.70;72.40;;;;;;5097985;28;19928;-75
2024/04/03 13:01:18;;;;;;;;;;;13.60;72.90;;;;;;5097922;28;19924;-74
2024/04/03 13:03:54;;;;;;;;;;;13.60;73.40;;;;;;5097823;28;19924;-75
2024/04/03 13:06:36;;;;;;;;;;;13.60;73.80;;;;;;5097417;28;19931;-76
2024/04/03 13:09:11;;;;;;;;;;;13.60;74.40;;;;;;5098638;28;19923;-73
2024/04/03 13:11:45;;;;;;;;;;;13.70;74.40;;;;;;5098083;28;19928;-74
2024/04/03 13:14:18;;;;;;;;;;;13.70;74.70;;;;;;5095457;28;19924;-75
2024/04/03 13:16:52;;;;;;;;;;;13.70;74.80;;;;;;5097751;28;19928;-76
2024/04/03 13:19:24;;;;;;;;;;;13.70;75.30;;;;;;5096406;28;19924;-77
2024/04/03 13:21:57;;;;;;;;;;;13.80;75.50;;;;;;5098081;28;20458;-76
2024/04/03 13:24:29;;;;;;;;;;;13.80;75.80;;;;;;5096731;28;19928;-76
2024/04/03 13:27:09;;;;;;;;;;;13.70;76.00;;;;;;5099147;28;19927;-75
2024/04/03 13:29:42;;;;;;;;;;;13.70;76.00;;;;;;5097571;28;19932;-74
2024/04/03 13:32:16;;;;;;;;;;;13.60;76.20;;;;;;5096094;28;19924;-75
2024/04/03 13:34:48;;;;;;;;;;;13.50;76.20;;;;;;5097948;28;19925;-74
2024/04/03 13:37:21;;;;;;;;;;;13.50;76.40;;;;;;5095798;28;19924;-76
2024/04/03 13:39:54;;;;;;;;;;;13.40;76.30;;;;;;5097664;28;19927;-76
2024/04/03 13:42:27;;;;;;;;;;;13.40;76.80;;;;;;5097520;28;19977;-75
2024/04/03 13:45:00;;;;;;;;;;;13.50;76.90;;;;;;5098656;28;19959;-73
2024/04/03 13:47:35;;;;;;;;;;;13.60;76.80;;;;;;5094180;28;19932;-75
2024/04/03 13:50:08;;;;;;;;;;;13.60;76.80;;;;;;5095901;28;19927;-77
2024/04/03 13:52:41;;;;;;;;;;;13.70;76.80;;;;;;5095733;28;19928;-75
2024/04/03 13:55:14;;;;;;;;;;;13.70;76.80;;;;;;5096501;28;19966;-74
2024/04/03 13:57:47;;;;;;;;;;;13.70;77.00;;;;;;5097127;28;20581;-76
2024/04/03 14:00:22;;;;;;;;;;;13.70;77.30;;;;;;5096353;28;20374;-74
2024/04/03 14:02:54;;;;;;;;;;;13.70;77.60;;;;;;5096671;28;20007;-75
2024/04/03 14:05:27;;;;;;;;;;;13.70;77.80;;;;;;5093266;28;20345;-76
2024/04/03 14:07:59;;;;;;;;;;;13.60;78.10;;;;;;5097260;28;20406;-76
2024/04/03 14:10:32;;;;;;;;;;;13.50;78.60;;;;;;5096425;28;19935;-74
2024/04/03 14:20:17;;;;;;;;;;;13.50;79.50;;;;;;5094401;28;19923;-59
2024/04/03 14:22:49;;;;;;;;;;;13.60;79.70;;;;;;5094704;28;19934;-59
2024/04/03 14:25:23;;;;;;;;;;;13.50;79.90;;;;;;5096951;28;20378;-58
2024/04/03 14:28:02;;;;;;;;;;;13.50;80.00;;;;;;5097339;28;19935;-58
2024/04/03 14:30:36;;;;;;;;;;;13.40;80.30;;;;;;5094614;28;19934;-58
2024/04/03 14:33:08;;;;;;;;;;;13.40;80.40;;;;;;5098184;28;19981;-57
2024/04/03 14:35:42;;;;;;;;;;;13.30;80.30;;;;;;5096507;28;19936;-58
2024/04/03 14:38:08;;;;;;;;;;;13.30;80.80;;;;;;5094806;28;20359;-58
2024/04/03 14:40:41;;;;;;;;;;;13.20;81.20;;;;;;5071649;28;19929;-58
2024/04/03 14:43:13;;;;;;;;;;;13.20;81.50;;;;;;5094052;28;19958;-61
2024/04/03 14:45:55;;;;;;;;;;;13.20;81.80;;;;;;5097341;28;19993;-59
2024/04/03 14:48:29;;;;;;;;;;;13.10;81.90;;;;;;5094491;28;19924;-58
2024/04/03 14:51:04;;;;;;;;;;;13.10;82.00;;;;;;5094334;28;20366;-59
2024/04/03 14:53:29;;;;;;;;;;;13.10;82.00;;;;;;5077188;28;19931;-59
2024/04/03 14:56:03;;;;;;;;;;;13.10;82.30;;;;;;5097432;28;19928;-58
2024/04/03 14:58:35;;;;;;;;;;;13.10;82.40;;;;;;5091773;28;21279;-58
2024/04/03 15:01:09;;;;;;;;;;;13.10;82.50;;;;;;5096593;28;19928;-59
2024/04/03 15:03:41;;;;;;;;;;;13.10;82.50;;;;;;5094460;28;19930;-61
2024/04/03 15:06:15;;;;;;;;;;;13.10;82.70;;;;;;5111251;27;20297;-60